sensor_id;sensor_type;location;lat;lon;timestamp;pressure;altitude;pressure_sealevel;temperature;humidity
38303;BME280;24103;42.454;27.400;2022-10-16T00:01:14;101374.06;;;14.43;nan
38303;BME280;24103;42.454;27.400;2022-10-16T00:03:41;101371.59;;;14.40;nan
38303;BME280;24103;42.454;27.400;2022-10-16T00:06:08;101369.09;;;14.36;nan
38303;BME280;24103;42.454;27.400;2022-10-16T00:08:34;101370.00;;;14.37;nan
38303;BME280;24103;42.454;27.400;2022-10-16T00:11:09;101361.22;;;14.35;nan
38303;BME280;24103;42.454;27.400;2022-10-16T00:13:37;101360.94;;;14.40;nan
38303;BME280;24103;42.454;27.400;2022-10-16T00:16:04;101368.25;;;14.36;nan
38303;BME280;24103;42.454;27.400;2022-10-16T00:18:30;101377.66;;;14.42;nan
38303;BME280;24103;42.454;27.400;2022-10-16T00:21:02;101366.28;;;14.40;nan
38303;BME280;24103;42.454;27.400;2022-10-16T00:23:27;101358.88;;;14.45;nan
38303;BME280;24103;42.454;27.400;2022-10-16T00:25:58;101364.94;;;14.47;nan
38303;BME280;24103;42.454;27.400;2022-10-16T00:28:24;101369.13;;;14.51;nan
38303;BME280;24103;42.454;27.400;2022-10-16T00:30:50;101366.09;;;14.43;nan
38303;BME280;24103;42.454;27.400;2022-10-16T00:33:15;101369.31;;;14.48;nan
38303;BME280;24103;42.454;27.400;2022-10-16T00:35:41;76783.69;;;-145.00;nan
38303;BME280;24103;42.454;27.400;2022-10-16T00:38:06;101377.53;;;14.59;nan
38303;BME280;24103;42.454;27.400;2022-10-16T00:40:32;101363.16;;;14.62;nan
38303;BME280;24103;42.454;27.400;2022-10-16T00:42:58;101387.56;;;-145.00;nan
38303;BME280;24103;42.454;27.400;2022-10-16T00:45:23;77153.28;;;-145.00;nan
38303;BME280;24103;42.454;27.400;2022-10-16T00:47:51;77149.25;;;-145.00;nan
38303;BME280;24103;42.454;27.400;2022-10-16T00:52:52;77153.28;;;-145.00;nan
38303;BME280;24103;42.454;27.400;2022-10-16T00:55:18;77157.34;;;-145.00;nan
38303;BME280;24103;42.454;27.400;2022-10-16T00:57:46;101391.25;;;-145.00;nan
38303;BME280;24103;42.454;27.400;2022-10-16T01:00:15;101370.94;;;14.50;nan
38303;BME280;24103;42.454;27.400;2022-10-16T01:02:41;101380.78;;;14.48;nan
38303;BME280;24103;42.454;27.400;2022-10-16T01:05:07;101377.28;;;14.48;nan
38303;BME280;24103;42.454;27.400;2022-10-16T01:10:45;101370.84;;;14.52;nan
38303;BME280;24103;42.454;27.400;2022-10-16T01:13:27;101370.84;;;14.52;nan
38303;BME280;24103;42.454;27.400;2022-10-16T01:16:37;101376.53;;;14.46;nan
38303;BME280;24103;42.454;27.400;2022-10-16T01:19:09;101383.38;;;14.50;nan
38303;BME280;24103;42.454;27.400;2022-10-16T01:21:40;101388.78;;;14.48;nan
38303;BME280;24103;42.454;27.400;2022-10-16T01:27:11;101388.19;;;14.43;nan
38303;BME280;24103;42.454;27.400;2022-10-16T01:29:57;101382.69;;;14.46;nan
38303;BME280;24103;42.454;27.400;2022-10-16T01:35:26;101376.63;;;14.44;nan
38303;BME280;24103;42.454;27.400;2022-10-16T01:38:00;101386.50;;;14.42;nan
38303;BME280;24103;42.454;27.400;2022-10-16T01:40:29;101380.91;;;14.32;nan
38303;BME280;24103;42.454;27.400;2022-10-16T01:43:03;101381.75;;;14.33;nan
38303;BME280;24103;42.454;27.400;2022-10-16T01:45:31;101375.47;;;14.34;nan
38303;BME280;24103;42.454;27.400;2022-10-16T01:48:00;101385.41;;;14.30;nan
38303;BME280;24103;42.454;27.400;2022-10-16T01:50:26;101394.63;;;14.25;nan
38303;BME280;24103;42.454;27.400;2022-10-16T01:52:53;101391.31;;;14.21;nan
38303;BME280;24103;42.454;27.400;2022-10-16T01:55:25;101396.91;;;14.16;nan
38303;BME280;24103;42.454;27.400;2022-10-16T01:57:54;101391.19;;;14.08;nan
38303;BME280;24103;42.454;27.400;2022-10-16T02:00:22;101398.66;;;14.01;nan
38303;BME280;24103;42.454;27.400;2022-10-16T02:02:51;101393.09;;;13.90;nan
38303;BME280;24103;42.454;27.400;2022-10-16T02:05:42;101404.38;;;13.79;nan
38303;BME280;24103;42.454;27.400;2022-10-16T02:08:10;101410.53;;;13.64;nan
38303;BME280;24103;42.454;27.400;2022-10-16T02:10:37;101423.16;;;13.44;nan
38303;BME280;24103;42.454;27.400;2022-10-16T02:13:17;101418.59;;;13.31;nan
38303;BME280;24103;42.454;27.400;2022-10-16T02:15:44;101428.09;;;13.19;nan
38303;BME280;24103;42.454;27.400;2022-10-16T02:18:10;101429.69;;;13.05;nan
38303;BME280;24103;42.454;27.400;2022-10-16T02:20:46;101429.66;;;12.89;nan
38303;BME280;24103;42.454;27.400;2022-10-16T02:23:21;101428.00;;;12.71;nan
38303;BME280;24103;42.454;27.400;2022-10-16T02:25:50;101435.81;;;12.57;nan
38303;BME280;24103;42.454;27.400;2022-10-16T02:28:23;101437.84;;;12.51;nan
38303;BME280;24103;42.454;27.400;2022-10-16T02:30:58;101439.25;;;12.41;nan
38303;BME280;24103;42.454;27.400;2022-10-16T02:33:25;101451.28;;;12.31;nan
38303;BME280;24103;42.454;27.400;2022-10-16T02:35:53;101448.06;;;12.24;nan
38303;BME280;24103;42.454;27.400;2022-10-16T02:38:20;101458.03;;;12.19;nan
38303;BME280;24103;42.454;27.400;2022-10-16T02:40:46;101460.84;;;12.16;nan
38303;BME280;24103;42.454;27.400;2022-10-16T02:43:12;101451.53;;;12.07;nan
38303;BME280;24103;42.454;27.400;2022-10-16T02:45:38;101456.63;;;12.12;nan
38303;BME280;24103;42.454;27.400;2022-10-16T02:48:05;101459.81;;;12.19;nan
38303;BME280;24103;42.454;27.400;2022-10-16T02:50:30;101460.84;;;12.16;nan
38303;BME280;24103;42.454;27.400;2022-10-16T02:52:56;101462.63;;;12.15;nan
38303;BME280;24103;42.454;27.400;2022-10-16T02:55:21;77517.00;;;-145.00;nan
38303;BME280;24103;42.454;27.400;2022-10-16T02:57:47;77517.00;;;-145.00;nan
38303;BME280;24103;42.454;27.400;2022-10-16T03:00:15;77525.09;;;-145.00;nan
38303;BME280;24103;42.454;27.400;2022-10-16T03:02:40;101478.56;;;-145.00;nan
38303;BME280;24103;42.454;27.400;2022-10-16T03:05:06;77569.53;;;-145.00;nan
38303;BME280;24103;42.454;27.400;2022-10-16T03:07:32;77465.34;;;-145.00;nan
38303;BME280;24103;42.454;27.400;2022-10-16T03:09:57;92922.38;;;-145.00;nan
38303;BME280;24103;42.454;27.400;2022-10-16T03:12:26;77630.16;;;-145.00;nan
38303;BME280;24103;42.454;27.400;2022-10-16T03:14:52;77648.34;;;-145.00;nan
38303;BME280;24103;42.454;27.400;2022-10-16T03:17:17;77670.56;;;-145.00;nan
38303;BME280;24103;42.454;27.400;2022-10-16T03:19:43;77690.78;;;-145.00;nan
38303;BME280;24103;42.454;27.400;2022-10-16T03:22:09;77692.81;;;-145.00;nan
38303;BME280;24103;42.454;27.400;2022-10-16T03:24:34;77708.97;;;-145.00;nan
38303;BME280;24103;42.454;27.400;2022-10-16T03:27:00;77719.06;;;-145.00;nan
38303;BME280;24103;42.454;27.400;2022-10-16T03:29:26;101486.97;;;10.70;nan
38303;BME280;24103;42.454;27.400;2022-10-16T03:31:52;77745.34;;;-145.00;nan
38303;BME280;24103;42.454;27.400;2022-10-16T03:34:18;77763.53;;;-145.00;nan
38303;BME280;24103;42.454;27.400;2022-10-16T03:36:43;77751.41;;;-145.00;nan
38303;BME280;24103;42.454;27.400;2022-10-16T03:39:09;77763.53;;;-145.00;nan
38303;BME280;24103;42.454;27.400;2022-10-16T03:41:34;77771.63;;;-145.00;nan
38303;BME280;24103;42.454;27.400;2022-10-16T03:44:00;101510.63;;;-145.00;nan
38303;BME280;24103;42.454;27.400;2022-10-16T03:46:25;77787.78;;;-145.00;nan
38303;BME280;24103;42.454;27.400;2022-10-16T03:48:51;77799.91;;;-145.00;nan
38303;BME280;24103;42.454;27.400;2022-10-16T03:51:16;77797.88;;;-145.00;nan
38303;BME280;24103;42.454;27.400;2022-10-16T03:53:42;77807.97;;;-145.00;nan
38303;BME280;24103;42.454;27.400;2022-10-16T03:56:07;77799.91;;;-145.00;nan
38303;BME280;24103;42.454;27.400;2022-10-16T03:58:33;101552.53;;;-145.00;nan
38303;BME280;24103;42.454;27.400;2022-10-16T04:00:58;77801.94;;;-145.00;nan
38303;BME280;24103;42.454;27.400;2022-10-16T04:03:24;77810.00;;;-145.00;nan
38303;BME280;24103;42.454;27.400;2022-10-16T04:05:50;101549.47;;;-145.00;nan
38303;BME280;24103;42.454;27.400;2022-10-16T04:08:15;77799.91;;;-145.00;nan
38303;BME280;24103;42.454;27.400;2022-10-16T04:10:44;77807.97;;;-145.00;nan
38303;BME280;24103;42.454;27.400;2022-10-16T04:13:10;77805.97;;;-145.00;nan
38303;BME280;24103;42.454;27.400;2022-10-16T04:15:36;77810.00;;;-145.00;nan
38303;BME280;24103;42.454;27.400;2022-10-16T04:18:01;77300.91;;;-145.00;nan
38303;BME280;24103;42.454;27.400;2022-10-16T04:20:27;77820.09;;;-145.00;nan
38303;BME280;24103;42.454;27.400;2022-10-16T04:22:53;77814.06;;;-145.00;nan
38303;BME280;24103;42.454;27.400;2022-10-16T04:25:18;77820.09;;;-145.00;nan
38303;BME280;24103;42.454;27.400;2022-10-16T04:27:44;77834.25;;;-145.00;nan
38303;BME280;24103;42.454;27.400;2022-10-16T04:30:09;77822.13;;;-145.00;nan
38303;BME280;24103;42.454;27.400;2022-10-16T04:32:35;77824.16;;;-145.00;nan
38303;BME280;24103;42.454;27.400;2022-10-16T04:35:00;77820.09;;;-145.00;nan
38303;BME280;24103;42.454;27.400;2022-10-16T04:37:26;77814.06;;;-145.00;nan
38303;BME280;24103;42.454;27.400;2022-10-16T04:39:53;77824.16;;;-145.00;nan
38303;BME280;24103;42.454;27.400;2022-10-16T04:42:20;77818.09;;;-145.00;nan
38303;BME280;24103;42.454;27.400;2022-10-16T04:44:45;77816.06;;;-145.00;nan
38303;BME280;24103;42.454;27.400;2022-10-16T04:47:11;101565.03;;;-145.00;nan
38303;BME280;24103;42.454;27.400;2022-10-16T04:49:37;77812.03;;;-145.00;nan
38303;BME280;24103;42.454;27.400;2022-10-16T04:52:02;77795.84;;;-145.00;nan
38303;BME280;24103;42.454;27.400;2022-10-16T04:54:28;77797.88;;;-145.00;nan
38303;BME280;24103;42.454;27.400;2022-10-16T04:56:53;77781.72;;;-145.00;nan
38303;BME280;24103;42.454;27.400;2022-10-16T04:59:20;77767.56;;;-145.00;nan
38303;BME280;24103;42.454;27.400;2022-10-16T05:01:46;77763.53;;;-145.00;nan
38303;BME280;24103;42.454;27.400;2022-10-16T05:04:12;77300.91;;;-145.00;nan
38303;BME280;24103;42.454;27.400;2022-10-16T05:06:38;77745.34;;;-145.00;nan
38303;BME280;24103;42.454;27.400;2022-10-16T05:09:07;77735.25;;;-145.00;nan
38303;BME280;24103;42.454;27.400;2022-10-16T05:11:32;77300.91;;;-145.00;nan
38303;BME280;24103;42.454;27.400;2022-10-16T05:13:58;77723.13;;;-145.00;nan
38303;BME280;24103;42.454;27.400;2022-10-16T05:16:24;77715.03;;;-145.00;nan
38303;BME280;24103;42.454;27.400;2022-10-16T05:18:51;77700.88;;;-145.00;nan
38303;BME280;24103;42.454;27.400;2022-10-16T05:21:16;77678.66;;;-145.00;nan
38303;BME280;24103;42.454;27.400;2022-10-16T05:23:42;101585.25;;;-145.00;nan
38303;BME280;24103;42.454;27.400;2022-10-16T05:26:07;77603.88;;;-145.00;nan
38303;BME280;24103;42.454;27.400;2022-10-16T05:28:33;77581.66;;;-145.00;nan
38303;BME280;24103;42.454;27.400;2022-10-16T05:30:58;77559.44;;;-145.00;nan
38303;BME280;24103;42.454;27.400;2022-10-16T05:33:25;77300.91;;;-145.00;nan
38303;BME280;24103;42.454;27.400;2022-10-16T05:35:51;77510.94;;;-145.00;nan
38303;BME280;24103;42.454;27.400;2022-10-16T05:38:17;77300.91;;;-145.00;nan
38303;BME280;24103;42.454;27.400;2022-10-16T05:40:43;77480.63;;;-145.00;nan
38303;BME280;24103;42.454;27.400;2022-10-16T05:43:09;101565.84;;;-145.00;nan
38303;BME280;24103;42.454;27.400;2022-10-16T05:45:34;77300.91;;;-145.00;nan
38303;BME280;24103;42.454;27.400;2022-10-16T05:48:00;77420.00;;;-145.00;nan
38303;BME280;24103;42.454;27.400;2022-10-16T05:50:27;77407.88;;;-145.00;nan
38303;BME280;24103;42.454;27.400;2022-10-16T05:52:52;77413.94;;;-145.00;nan
38303;BME280;24103;42.454;27.400;2022-10-16T05:55:18;77300.91;;;-145.00;nan
38303;BME280;24103;42.454;27.400;2022-10-16T05:57:43;77442.25;;;-145.00;nan
38303;BME280;24103;42.454;27.400;2022-10-16T06:00:10;77300.91;;;-145.00;nan
38303;BME280;24103;42.454;27.400;2022-10-16T06:02:35;77466.47;;;-145.00;nan
38303;BME280;24103;42.454;27.400;2022-10-16T06:05:01;77472.53;;;-145.00;nan
38303;BME280;24103;42.454;27.400;2022-10-16T06:07:26;77468.50;;;-145.00;nan
38303;BME280;24103;42.454;27.400;2022-10-16T06:09:53;77456.38;;;-145.00;nan
38303;BME280;24103;42.454;27.400;2022-10-16T06:12:19;101614.75;;;-145.00;nan
38303;BME280;24103;42.454;27.400;2022-10-16T06:14:45;101585.75;;;-145.00;nan
38303;BME280;24103;42.454;27.400;2022-10-16T06:17:14;77405.88;;;-145.00;nan
38303;BME280;24103;42.454;27.400;2022-10-16T06:19:40;77444.25;;;-145.00;nan
38303;BME280;24103;42.454;27.400;2022-10-16T06:22:06;77434.16;;;-145.00;nan
38303;BME280;24103;42.454;27.400;2022-10-16T06:24:32;77300.91;;;-145.00;nan
38303;BME280;24103;42.454;27.400;2022-10-16T06:26:57;77450.31;;;-145.00;nan
38303;BME280;24103;42.454;27.400;2022-10-16T06:29:23;77444.25;;;-145.00;nan
38303;BME280;24103;42.454;27.400;2022-10-16T06:31:48;77454.34;;;-145.00;nan
38303;BME280;24103;42.454;27.400;2022-10-16T06:34:14;77452.34;;;-145.00;nan
38303;BME280;24103;42.454;27.400;2022-10-16T06:36:39;77446.28;;;-145.00;nan
38303;BME280;24103;42.454;27.400;2022-10-16T06:39:06;77444.25;;;-145.00;nan
38303;BME280;24103;42.454;27.400;2022-10-16T06:41:33;92636.56;;;-145.00;nan
38303;BME280;24103;42.454;27.400;2022-10-16T06:43:58;77420.00;;;-145.00;nan
38303;BME280;24103;42.454;27.400;2022-10-16T06:46:25;77415.97;;;-145.00;nan
38303;BME280;24103;42.454;27.400;2022-10-16T06:48:52;101603.31;;;13.84;nan
38303;BME280;24103;42.454;27.400;2022-10-16T06:51:23;101606.84;;;14.00;nan
38303;BME280;24103;42.454;27.400;2022-10-16T06:53:55;101603.69;;;14.10;nan
38303;BME280;24103;42.454;27.400;2022-10-16T06:56:26;101608.59;;;14.17;nan
38303;BME280;24103;42.454;27.400;2022-10-16T06:58:53;101625.31;;;14.19;nan
38303;BME280;24103;42.454;27.400;2022-10-16T07:01:21;101613.44;;;14.25;nan
38303;BME280;24103;42.454;27.400;2022-10-16T07:03:47;101614.75;;;14.34;nan
38303;BME280;24103;42.454;27.400;2022-10-16T07:06:15;101610.97;;;14.38;nan
38303;BME280;24103;42.454;27.400;2022-10-16T07:08:42;101613.19;;;14.46;nan
38303;BME280;24103;42.454;27.400;2022-10-16T07:11:14;101615.50;;;14.52;nan
38303;BME280;24103;42.454;27.400;2022-10-16T07:13:41;101611.97;;;14.51;nan
38303;BME280;24103;42.454;27.400;2022-10-16T07:16:10;101616.09;;;14.57;nan
38303;BME280;24103;42.454;27.400;2022-10-16T07:18:36;101614.13;;;14.77;nan
38303;BME280;24103;42.454;27.400;2022-10-16T07:21:08;101614.63;;;14.98;nan
38303;BME280;24103;42.454;27.400;2022-10-16T07:23:34;101618.97;;;15.15;nan
38303;BME280;24103;42.454;27.400;2022-10-16T07:26:00;101614.22;;;15.34;nan
38303;BME280;24103;42.454;27.400;2022-10-16T07:28:26;101607.97;;;15.50;nan
38303;BME280;24103;42.454;27.400;2022-10-16T07:30:52;101616.81;;;15.64;nan
38303;BME280;24103;42.454;27.400;2022-10-16T07:33:17;101608.31;;;15.72;nan
38303;BME280;24103;42.454;27.400;2022-10-16T07:35:53;101616.81;;;15.64;nan
38303;BME280;24103;42.454;27.400;2022-10-16T07:38:19;101616.72;;;15.80;nan
38303;BME280;24103;42.454;27.400;2022-10-16T07:40:45;101612.81;;;16.00;nan
38303;BME280;24103;42.454;27.400;2022-10-16T07:43:11;101618.16;;;16.00;nan
38303;BME280;24103;42.454;27.400;2022-10-16T07:45:37;101605.13;;;15.96;nan
38303;BME280;24103;42.454;27.400;2022-10-16T07:48:11;101613.19;;;16.09;nan
38303;BME280;24103;42.454;27.400;2022-10-16T07:50:36;101614.13;;;16.22;nan
38303;BME280;24103;42.454;27.400;2022-10-16T07:53:02;101607.66;;;16.39;nan
38303;BME280;24103;42.454;27.400;2022-10-16T07:55:28;101614.41;;;16.45;nan
38303;BME280;24103;42.454;27.400;2022-10-16T07:57:54;101619.78;;;16.57;nan
38303;BME280;24103;42.454;27.400;2022-10-16T08:00:20;101616.44;;;16.68;nan
38303;BME280;24103;42.454;27.400;2022-10-16T08:02:45;101615.16;;;16.74;nan
38303;BME280;24103;42.454;27.400;2022-10-16T08:05:11;101612.69;;;16.71;nan
38303;BME280;24103;42.454;27.400;2022-10-16T08:07:36;101605.88;;;16.80;nan
38303;BME280;24103;42.454;27.400;2022-10-16T08:10:02;101626.16;;;16.82;nan
38303;BME280;24103;42.454;27.400;2022-10-16T08:12:28;101613.31;;;17.02;nan
38303;BME280;24103;42.454;27.400;2022-10-16T08:14:53;101610.44;;;17.05;nan
38303;BME280;24103;42.454;27.400;2022-10-16T08:17:19;101602.66;;;17.15;nan
38303;BME280;24103;42.454;27.400;2022-10-16T08:19:47;101614.72;;;17.20;nan
38303;BME280;24103;42.454;27.400;2022-10-16T08:22:14;101613.94;;;16.92;nan
38303;BME280;24103;42.454;27.400;2022-10-16T08:24:39;101615.31;;;16.85;nan
38303;BME280;24103;42.454;27.400;2022-10-16T08:27:05;101606.28;;;17.13;nan
38303;BME280;24103;42.454;27.400;2022-10-16T08:29:31;101618.66;;;17.40;nan
38303;BME280;24103;42.454;27.400;2022-10-16T08:31:57;101610.56;;;17.42;nan
38303;BME280;24103;42.454;27.400;2022-10-16T08:34:22;101614.75;;;17.46;nan
38303;BME280;24103;42.454;27.400;2022-10-16T08:36:48;101620.59;;;17.38;nan
38303;BME280;24103;42.454;27.400;2022-10-16T08:39:13;101614.84;;;17.31;nan
38303;BME280;24103;42.454;27.400;2022-10-16T08:49:35;101618.03;;;17.37;nan
38303;BME280;24103;42.454;27.400;2022-10-16T08:52:02;101621.75;;;17.73;nan
38303;BME280;24103;42.454;27.400;2022-10-16T08:55:01;101619.19;;;17.71;nan
38303;BME280;24103;42.454;27.400;2022-10-16T08:57:21;101638.56;;;17.88;nan
38303;BME280;24103;42.454;27.400;2022-10-16T08:59:47;101610.94;;;18.00;nan
38303;BME280;24103;42.454;27.400;2022-10-16T09:12:56;101616.72;;;18.31;nan
38303;BME280;24103;42.454;27.400;2022-10-16T09:15:49;101615.75;;;18.56;nan
38303;BME280;24103;42.454;27.400;2022-10-16T09:23:38;101622.50;;;18.24;nan
38303;BME280;24103;42.454;27.400;2022-10-16T09:26:05;101615.75;;;17.95;nan
38303;BME280;24103;42.454;27.400;2022-10-16T09:28:35;101616.63;;;17.95;nan
38303;BME280;24103;42.454;27.400;2022-10-16T09:31:00;101622.63;;;17.60;nan
38303;BME280;24103;42.454;27.400;2022-10-16T09:33:30;101627.75;;;17.76;nan
38303;BME280;24103;42.454;27.400;2022-10-16T09:35:59;101616.63;;;17.82;nan
38303;BME280;24103;42.454;27.400;2022-10-16T09:38:28;101624.75;;;17.68;nan
38303;BME280;24103;42.454;27.400;2022-10-16T09:41:02;101626.38;;;17.45;nan
38303;BME280;24103;42.454;27.400;2022-10-16T09:43:41;101622.41;;;17.25;nan
38303;BME280;24103;42.454;27.400;2022-10-16T09:46:27;101617.50;;;17.31;nan
38303;BME280;24103;42.454;27.400;2022-10-16T09:48:59;101619.75;;;17.38;nan
38303;BME280;24103;42.454;27.400;2022-10-16T09:51:30;101609.16;;;17.23;nan
38303;BME280;24103;42.454;27.400;2022-10-16T09:56:36;101622.28;;;17.52;nan
38303;BME280;24103;42.454;27.400;2022-10-16T10:01:39;101617.09;;;17.50;nan
38303;BME280;24103;42.454;27.400;2022-10-16T10:04:06;101607.66;;;17.58;nan
38303;BME280;24103;42.454;27.400;2022-10-16T10:06:40;101610.97;;;17.48;nan
38303;BME280;24103;42.454;27.400;2022-10-16T10:09:38;101621.34;;;17.66;nan
38303;BME280;24103;42.454;27.400;2022-10-16T10:12:14;101615.59;;;17.59;nan
38303;BME280;24103;42.454;27.400;2022-10-16T10:14:47;101619.41;;;17.68;nan
38303;BME280;24103;42.454;27.400;2022-10-16T10:22:18;101610.19;;;17.98;nan
38303;BME280;24103;42.454;27.400;2022-10-16T10:25:15;101594.16;;;17.98;nan
38303;BME280;24103;42.454;27.400;2022-10-16T10:30:52;101593.84;;;17.90;nan
38303;BME280;24103;42.454;27.400;2022-10-16T10:38:30;101589.66;;;17.98;nan
38303;BME280;24103;42.454;27.400;2022-10-16T10:44:12;101590.81;;;18.07;nan
38303;BME280;24103;42.454;27.400;2022-10-16T10:55:19;101579.09;;;18.21;nan
38303;BME280;24103;42.454;27.400;2022-10-16T11:05:46;101578.19;;;18.33;nan
38303;BME280;24103;42.454;27.400;2022-10-16T11:08:38;101588.59;;;18.25;nan
38303;BME280;24103;42.454;27.400;2022-10-16T11:14:25;101575.00;;;18.28;nan
38303;BME280;24103;42.454;27.400;2022-10-16T11:17:25;101571.28;;;18.18;nan
38303;BME280;24103;42.454;27.400;2022-10-16T11:19:56;101570.22;;;18.20;nan
38303;BME280;24103;42.454;27.400;2022-10-16T11:22:52;101574.63;;;18.33;nan
38303;BME280;24103;42.454;27.400;2022-10-16T11:25:28;101574.75;;;18.31;nan
38303;BME280;24103;42.454;27.400;2022-10-16T11:30:28;101549.03;;;18.41;nan
38303;BME280;24103;42.454;27.400;2022-10-16T11:38:13;101554.91;;;18.22;nan
38303;BME280;24103;42.454;27.400;2022-10-16T11:40:41;101558.31;;;18.24;nan
38303;BME280;24103;42.454;27.400;2022-10-16T11:43:32;101565.38;;;18.26;nan
38303;BME280;24103;42.454;27.400;2022-10-16T11:46:08;101577.84;;;18.14;nan
38303;BME280;24103;42.454;27.400;2022-10-16T11:48:43;101572.72;;;18.11;nan
38303;BME280;24103;42.454;27.400;2022-10-16T11:51:39;101568.56;;;18.07;nan
38303;BME280;24103;42.454;27.400;2022-10-16T11:54:22;101578.28;;;18.08;nan
38303;BME280;24103;42.454;27.400;2022-10-16T11:56:55;101586.41;;;18.06;nan
38303;BME280;24103;42.454;27.400;2022-10-16T12:02:17;101599.09;;;17.91;nan
38303;BME280;24103;42.454;27.400;2022-10-16T12:07:36;101602.84;;;17.76;nan
38303;BME280;24103;42.454;27.400;2022-10-16T12:10:20;101618.03;;;17.62;nan
38303;BME280;24103;42.454;27.400;2022-10-16T12:12:46;101611.41;;;17.68;nan
38303;BME280;24103;42.454;27.400;2022-10-16T12:15:21;101638.00;;;17.57;nan
38303;BME280;24103;42.454;27.400;2022-10-16T12:17:47;101617.72;;;17.54;nan
38303;BME280;24103;42.454;27.400;2022-10-16T12:27:55;101628.94;;;17.46;nan
38303;BME280;24103;42.454;27.400;2022-10-16T12:30:26;101628.72;;;17.49;nan
38303;BME280;24103;42.454;27.400;2022-10-16T12:32:54;101628.41;;;17.54;nan
38303;BME280;24103;42.454;27.400;2022-10-16T12:35:24;101632.47;;;17.47;nan
38303;BME280;24103;42.454;27.400;2022-10-16T12:37:51;101630.97;;;17.43;nan
38303;BME280;24103;42.454;27.400;2022-10-16T12:40:29;101632.34;;;17.48;nan
38303;BME280;24103;42.454;27.400;2022-10-16T12:42:56;101635.22;;;17.45;nan
38303;BME280;24103;42.454;27.400;2022-10-16T12:47:53;101637.69;;;17.48;nan
38303;BME280;24103;42.454;27.400;2022-10-16T12:50:38;101648.28;;;17.37;nan
38303;BME280;24103;42.454;27.400;2022-10-16T12:53:23;101648.28;;;17.50;nan
38303;BME280;24103;42.454;27.400;2022-10-16T12:55:57;101640.06;;;17.53;nan
38303;BME280;24103;42.454;27.400;2022-10-16T12:58:28;101637.38;;;17.40;nan
38303;BME280;24103;42.454;27.400;2022-10-16T13:04:22;101633.53;;;17.44;nan
38303;BME280;24103;42.454;27.400;2022-10-16T13:09:46;101633.22;;;17.49;nan
38303;BME280;24103;42.454;27.400;2022-10-16T13:12:17;101638.22;;;17.54;nan
38303;BME280;24103;42.454;27.400;2022-10-16T13:20:21;101641.97;;;17.25;nan
38303;BME280;24103;42.454;27.400;2022-10-16T13:28:06;101647.41;;;17.11;nan
38303;BME280;24103;42.454;27.400;2022-10-16T13:33:30;101645.91;;;17.20;nan
38303;BME280;24103;42.454;27.400;2022-10-16T13:35:55;101648.38;;;17.23;nan
38303;BME280;24103;42.454;27.400;2022-10-16T13:38:26;101643.75;;;17.12;nan
38303;BME280;24103;42.454;27.400;2022-10-16T13:43:48;101636.06;;;17.07;nan
38303;BME280;24103;42.454;27.400;2022-10-16T13:46:20;101641.16;;;16.98;nan
38303;BME280;24103;42.454;27.400;2022-10-16T13:49:02;101647.50;;;16.97;nan
38303;BME280;24103;42.454;27.400;2022-10-16T13:51:30;101643.09;;;16.95;nan
38303;BME280;24103;42.454;27.400;2022-10-16T13:53:56;101647.50;;;16.97;nan
38303;BME280;24103;42.454;27.400;2022-10-16T13:56:26;101648.84;;;16.89;nan
38303;BME280;24103;42.454;27.400;2022-10-16T13:59:01;101644.16;;;16.93;nan
38303;BME280;24103;42.454;27.400;2022-10-16T14:01:35;101645.31;;;16.89;nan
38303;BME280;24103;42.454;27.400;2022-10-16T14:04:09;101650.09;;;16.84;nan
38303;BME280;24103;42.454;27.400;2022-10-16T14:06:41;101650.09;;;16.84;nan
38303;BME280;24103;42.454;27.400;2022-10-16T14:09:09;101655.91;;;16.63;nan
38303;BME280;24103;42.454;27.400;2022-10-16T14:11:49;101655.28;;;16.72;nan
38303;BME280;24103;42.454;27.400;2022-10-16T14:14:17;101647.81;;;16.65;nan
38303;BME280;24103;42.454;27.400;2022-10-16T14:16:43;101660.38;;;16.63;nan
38303;BME280;24103;42.454;27.400;2022-10-16T14:19:29;101648.00;;;16.62;nan
38303;BME280;24103;42.454;27.400;2022-10-16T14:21:55;101654.38;;;16.59;nan
38303;BME280;24103;42.454;27.400;2022-10-16T14:24:27;101635.91;;;16.56;nan
38303;BME280;24103;42.454;27.400;2022-10-16T14:26:57;101658.72;;;16.47;nan
38303;BME280;24103;42.454;27.400;2022-10-16T14:29:24;101659.56;;;16.48;nan
38303;BME280;24103;42.454;27.400;2022-10-16T14:32:04;101662.31;;;16.46;nan
38303;BME280;24103;42.454;27.400;2022-10-16T14:34:35;101668.28;;;16.37;nan
38303;BME280;24103;42.454;27.400;2022-10-16T14:39:33;101665.16;;;16.30;nan
38303;BME280;24103;42.454;27.400;2022-10-16T14:41:58;101662.56;;;16.29;nan
38303;BME280;24103;42.454;27.400;2022-10-16T14:44:30;101672.59;;;16.25;nan
38303;BME280;24103;42.454;27.400;2022-10-16T14:46:57;101671.13;;;16.34;nan
38303;BME280;24103;42.454;27.400;2022-10-16T14:49:24;101675.44;;;16.22;nan
38303;BME280;24103;42.454;27.400;2022-10-16T14:51:50;101689.16;;;16.16;nan
38303;BME280;24103;42.454;27.400;2022-10-16T14:54:18;101691.53;;;16.06;nan
38303;BME280;24103;42.454;27.400;2022-10-16T14:59:36;101699.72;;;16.03;nan
38303;BME280;24103;42.454;27.400;2022-10-16T15:04:41;101701.06;;;15.81;nan
38303;BME280;24103;42.454;27.400;2022-10-16T15:07:07;101693.63;;;15.87;nan
38303;BME280;24103;42.454;27.400;2022-10-16T15:09:33;101701.41;;;15.75;nan
38303;BME280;24103;42.454;27.400;2022-10-16T15:11:59;101703.59;;;15.69;nan
38303;BME280;24103;42.454;27.400;2022-10-16T15:14:24;101717.69;;;15.71;nan
38303;BME280;24103;42.454;27.400;2022-10-16T15:16:50;101717.69;;;15.71;nan
38303;BME280;24103;42.454;27.400;2022-10-16T15:19:15;101716.34;;;15.63;nan